Jamesport, Missouri
Current Conditions -  °F | °C
As of 3:22 PM on Saturday 20 Dec 2014 (Local Time) from KLWD Reporting Station
Haze Haze  
Wind Chill: 29°   Ceiling: 500
Heat Index: 35°   Visibility: 2.5mi
Dew Point: 34°   Wind: 7mph
Humidity: 96%   Direction: 170°S
Pressure: 30.11"   Gusts: NA
Location:  39.97°N, 93.8°W
Report Text: KLWD 202122Z AUTO 17006KT 2 1/2SM BR BKN005 OVC010 02/01 A3011 RMK AO2 CIG 003V009 T00170011
Loading
Personal Weather Stations






























Interactive Weather Map New forecast layout! Learn more

10-Day Weather Forecast

Advertisements
Track Severe Weather on mobile